sensor_id;sensor_type;location;lat;lon;timestamp;temperature;humidity
15546;DHT22;7874;48.870;11.074;2023-08-07T00:01:12;12.20;99.90
15546;DHT22;7874;48.870;11.074;2023-08-07T00:03:39;12.20;99.90
15546;DHT22;7874;48.870;11.074;2023-08-07T00:06:06;12.10;99.90
15546;DHT22;7874;48.870;11.074;2023-08-07T00:08:33;12.10;99.90
15546;DHT22;7874;48.870;11.074;2023-08-07T00:11:05;12.20;99.90
15546;DHT22;7874;48.870;11.074;2023-08-07T00:13:32;12.10;99.90
15546;DHT22;7874;48.870;11.074;2023-08-07T00:15:59;12.10;99.90
15546;DHT22;7874;48.870;11.074;2023-08-07T00:18:25;12.00;99.90
15546;DHT22;7874;48.870;11.074;2023-08-07T00:20:53;12.00;99.90
15546;DHT22;7874;48.870;11.074;2023-08-07T00:23:20;12.10;99.90
15546;DHT22;7874;48.870;11.074;2023-08-07T00:25:47;12.10;99.90
15546;DHT22;7874;48.870;11.074;2023-08-07T00:28:14;12.10;99.90
15546;DHT22;7874;48.870;11.074;2023-08-07T00:30:40;12.00;99.90
15546;DHT22;7874;48.870;11.074;2023-08-07T00:33:07;12.00;99.90
15546;DHT22;7874;48.870;11.074;2023-08-07T00:35:33;12.00;99.90
15546;DHT22;7874;48.870;11.074;2023-08-07T00:38:01;12.00;99.90
15546;DHT22;7874;48.870;11.074;2023-08-07T00:40:28;12.10;99.90
15546;DHT22;7874;48.870;11.074;2023-08-07T00:43:02;12.10;99.90
15546;DHT22;7874;48.870;11.074;2023-08-07T00:45:28;12.10;99.90
15546;DHT22;7874;48.870;11.074;2023-08-07T00:47:55;12.10;99.90
15546;DHT22;7874;48.870;11.074;2023-08-07T00:50:22;12.10;99.90
15546;DHT22;7874;48.870;11.074;2023-08-07T00:52:49;12.00;99.90
15546;DHT22;7874;48.870;11.074;2023-08-07T00:55:17;12.10;99.90
15546;DHT22;7874;48.870;11.074;2023-08-07T00:57:44;12.10;99.90
15546;DHT22;7874;48.870;11.074;2023-08-07T01:00:12;12.10;99.90
15546;DHT22;7874;48.870;11.074;2023-08-07T01:02:39;12.00;99.90
15546;DHT22;7874;48.870;11.074;2023-08-07T01:05:07;11.90;99.90
15546;DHT22;7874;48.870;11.074;2023-08-07T01:09:21;11.90;99.90
15546;DHT22;7874;48.870;11.074;2023-08-07T01:11:50;11.90;99.90
15546;DHT22;7874;48.870;11.074;2023-08-07T01:14:26;11.90;99.90
15546;DHT22;7874;48.870;11.074;2023-08-07T01:16:59;11.80;99.90
15546;DHT22;7874;48.870;11.074;2023-08-07T01:19:28;11.80;99.90
15546;DHT22;7874;48.870;11.074;2023-08-07T01:22:06;11.90;99.90
15546;DHT22;7874;48.870;11.074;2023-08-07T01:24:33;11.90;99.90
15546;DHT22;7874;48.870;11.074;2023-08-07T01:27:04;12.00;99.90
15546;DHT22;7874;48.870;11.074;2023-08-07T01:29:36;12.00;99.90
15546;DHT22;7874;48.870;11.074;2023-08-07T01:32:08;12.00;99.90
15546;DHT22;7874;48.870;11.074;2023-08-07T01:34:37;11.90;99.90
15546;DHT22;7874;48.870;11.074;2023-08-07T01:37:07;11.90;99.90
15546;DHT22;7874;48.870;11.074;2023-08-07T01:39:37;11.80;99.90
15546;DHT22;7874;48.870;11.074;2023-08-07T01:42:05;11.80;99.90
15546;DHT22;7874;48.870;11.074;2023-08-07T01:44:31;11.80;99.90
15546;DHT22;7874;48.870;11.074;2023-08-07T01:46:58;11.80;99.90
15546;DHT22;7874;48.870;11.074;2023-08-07T01:49:25;11.80;99.90
15546;DHT22;7874;48.870;11.074;2023-08-07T01:51:52;11.80;99.90
15546;DHT22;7874;48.870;11.074;2023-08-07T01:54:20;11.70;99.90
15546;DHT22;7874;48.870;11.074;2023-08-07T01:56:46;11.70;99.90
15546;DHT22;7874;48.870;11.074;2023-08-07T01:59:13;11.80;99.90
15546;DHT22;7874;48.870;11.074;2023-08-07T02:01:39;11.80;99.90
15546;DHT22;7874;48.870;11.074;2023-08-07T02:04:06;11.80;99.90
15546;DHT22;7874;48.870;11.074;2023-08-07T02:06:33;11.70;99.90
15546;DHT22;7874;48.870;11.074;2023-08-07T02:09:00;11.70;99.90
15546;DHT22;7874;48.870;11.074;2023-08-07T02:11:28;11.70;99.90
15546;DHT22;7874;48.870;11.074;2023-08-07T02:13:54;11.70;99.90
15546;DHT22;7874;48.870;11.074;2023-08-07T02:16:21;11.70;99.90
15546;DHT22;7874;48.870;11.074;2023-08-07T02:18:48;11.60;99.90
15546;DHT22;7874;48.870;11.074;2023-08-07T02:21:14;11.70;99.90
15546;DHT22;7874;48.870;11.074;2023-08-07T02:23:41;11.70;99.90
15546;DHT22;7874;48.870;11.074;2023-08-07T02:26:08;11.70;99.90
15546;DHT22;7874;48.870;11.074;2023-08-07T02:28:36;11.70;99.90
15546;DHT22;7874;48.870;11.074;2023-08-07T02:31:03;11.70;99.90
15546;DHT22;7874;48.870;11.074;2023-08-07T02:33:29;11.70;99.90
15546;DHT22;7874;48.870;11.074;2023-08-07T02:35:56;11.70;99.90
15546;DHT22;7874;48.870;11.074;2023-08-07T02:38:24;11.70;99.90
15546;DHT22;7874;48.870;11.074;2023-08-07T02:40:51;11.60;99.90
15546;DHT22;7874;48.870;11.074;2023-08-07T02:43:17;11.50;99.90
15546;DHT22;7874;48.870;11.074;2023-08-07T02:45:45;11.60;99.90
15546;DHT22;7874;48.870;11.074;2023-08-07T02:48:12;11.60;99.90
15546;DHT22;7874;48.870;11.074;2023-08-07T02:50:39;11.60;99.90
15546;DHT22;7874;48.870;11.074;2023-08-07T02:53:06;11.60;99.90
15546;DHT22;7874;48.870;11.074;2023-08-07T02:55:33;11.70;99.90
15546;DHT22;7874;48.870;11.074;2023-08-07T02:57:59;11.60;99.90
15546;DHT22;7874;48.870;11.074;2023-08-07T03:00:26;11.50;99.90
15546;DHT22;7874;48.870;11.074;2023-08-07T03:02:54;11.50;99.90
15546;DHT22;7874;48.870;11.074;2023-08-07T03:05:21;11.50;99.90
15546;DHT22;7874;48.870;11.074;2023-08-07T03:07:47;11.50;99.90
15546;DHT22;7874;48.870;11.074;2023-08-07T03:10:14;11.50;99.90
15546;DHT22;7874;48.870;11.074;2023-08-07T03:12:41;11.50;99.90
15546;DHT22;7874;48.870;11.074;2023-08-07T03:15:08;11.50;99.90
15546;DHT22;7874;48.870;11.074;2023-08-07T03:17:35;11.50;99.90
15546;DHT22;7874;48.870;11.074;2023-08-07T03:20:03;11.50;99.90
15546;DHT22;7874;48.870;11.074;2023-08-07T03:22:30;11.60;99.90
15546;DHT22;7874;48.870;11.074;2023-08-07T03:24:57;11.50;99.90
15546;DHT22;7874;48.870;11.074;2023-08-07T03:27:24;11.50;99.90
15546;DHT22;7874;48.870;11.074;2023-08-07T03:29:50;11.50;99.90
15546;DHT22;7874;48.870;11.074;2023-08-07T03:32:18;11.50;99.90
15546;DHT22;7874;48.870;11.074;2023-08-07T03:34:44;11.50;99.90
15546;DHT22;7874;48.870;11.074;2023-08-07T03:37:12;11.40;99.90
15546;DHT22;7874;48.870;11.074;2023-08-07T03:39:39;11.50;99.90
15546;DHT22;7874;48.870;11.074;2023-08-07T03:42:06;11.50;99.90
15546;DHT22;7874;48.870;11.074;2023-08-07T03:44:33;11.60;99.90
15546;DHT22;7874;48.870;11.074;2023-08-07T03:47:00;11.50;99.90
15546;DHT22;7874;48.870;11.074;2023-08-07T03:49:26;11.40;99.90
15546;DHT22;7874;48.870;11.074;2023-08-07T03:51:53;11.40;99.90
15546;DHT22;7874;48.870;11.074;2023-08-07T03:54:21;11.40;99.90
15546;DHT22;7874;48.870;11.074;2023-08-07T03:58:08;11.30;99.90
15546;DHT22;7874;48.870;11.074;2023-08-07T04:00:34;11.30;99.90
15546;DHT22;7874;48.870;11.074;2023-08-07T04:03:01;11.30;99.90
15546;DHT22;7874;48.870;11.074;2023-08-07T04:05:28;11.30;99.90
15546;DHT22;7874;48.870;11.074;2023-08-07T04:07:54;11.30;99.90
15546;DHT22;7874;48.870;11.074;2023-08-07T04:10:21;11.30;99.90
15546;DHT22;7874;48.870;11.074;2023-08-07T04:12:48;11.30;99.90
15546;DHT22;7874;48.870;11.074;2023-08-07T04:15:16;11.40;99.90
15546;DHT22;7874;48.870;11.074;2023-08-07T04:17:43;11.40;99.90
15546;DHT22;7874;48.870;11.074;2023-08-07T04:20:10;11.30;99.90
15546;DHT22;7874;48.870;11.074;2023-08-07T04:22:37;11.30;99.90
15546;DHT22;7874;48.870;11.074;2023-08-07T04:25:04;11.40;99.90
15546;DHT22;7874;48.870;11.074;2023-08-07T04:27:31;11.40;99.90
15546;DHT22;7874;48.870;11.074;2023-08-07T04:29:58;11.40;99.90
15546;DHT22;7874;48.870;11.074;2023-08-07T04:32:26;11.40;99.90
15546;DHT22;7874;48.870;11.074;2023-08-07T04:34:53;11.40;99.90
15546;DHT22;7874;48.870;11.074;2023-08-07T04:37:20;11.30;99.90
15546;DHT22;7874;48.870;11.074;2023-08-07T04:39:46;11.30;99.90
15546;DHT22;7874;48.870;11.074;2023-08-07T04:42:13;11.30;99.90
15546;DHT22;7874;48.870;11.074;2023-08-07T04:44:40;11.30;99.90
15546;DHT22;7874;48.870;11.074;2023-08-07T04:47:06;11.30;99.90
15546;DHT22;7874;48.870;11.074;2023-08-07T04:49:34;11.40;99.90
15546;DHT22;7874;48.870;11.074;2023-08-07T04:52:01;11.40;99.90
15546;DHT22;7874;48.870;11.074;2023-08-07T04:54:28;11.40;99.90
15546;DHT22;7874;48.870;11.074;2023-08-07T04:56:54;11.40;99.90
15546;DHT22;7874;48.870;11.074;2023-08-07T04:59:21;11.40;99.90
15546;DHT22;7874;48.870;11.074;2023-08-07T05:01:48;11.40;99.90
15546;DHT22;7874;48.870;11.074;2023-08-07T05:04:14;11.30;99.90
15546;DHT22;7874;48.870;11.074;2023-08-07T05:06:42;11.30;99.90
15546;DHT22;7874;48.870;11.074;2023-08-07T05:09:09;11.40;99.90
15546;DHT22;7874;48.870;11.074;2023-08-07T05:11:36;11.40;99.90
15546;DHT22;7874;48.870;11.074;2023-08-07T05:14:02;11.40;99.90
15546;DHT22;7874;48.870;11.074;2023-08-07T05:16:30;11.40;99.90
15546;DHT22;7874;48.870;11.074;2023-08-07T05:18:56;11.40;99.90
15546;DHT22;7874;48.870;11.074;2023-08-07T05:21:23;11.30;99.90
15546;DHT22;7874;48.870;11.074;2023-08-07T05:23:51;11.30;99.90
15546;DHT22;7874;48.870;11.074;2023-08-07T05:26:18;11.30;99.90
15546;DHT22;7874;48.870;11.074;2023-08-07T05:28:45;11.20;99.90
15546;DHT22;7874;48.870;11.074;2023-08-07T05:31:12;11.20;99.90
15546;DHT22;7874;48.870;11.074;2023-08-07T05:33:39;11.20;99.90
15546;DHT22;7874;48.870;11.074;2023-08-07T05:36:06;11.20;99.90
15546;DHT22;7874;48.870;11.074;2023-08-07T05:38:33;11.10;99.90
15546;DHT22;7874;48.870;11.074;2023-08-07T05:41:01;11.20;99.90
15546;DHT22;7874;48.870;11.074;2023-08-07T05:43:27;11.20;99.90
15546;DHT22;7874;48.870;11.074;2023-08-07T05:45:54;11.20;99.90
15546;DHT22;7874;48.870;11.074;2023-08-07T05:48:21;11.30;99.90
15546;DHT22;7874;48.870;11.074;2023-08-07T05:50:47;11.40;99.90
15546;DHT22;7874;48.870;11.074;2023-08-07T05:53:14;11.40;99.90
15546;DHT22;7874;48.870;11.074;2023-08-07T05:55:40;11.40;99.90
15546;DHT22;7874;48.870;11.074;2023-08-07T05:58:09;11.40;99.90
15546;DHT22;7874;48.870;11.074;2023-08-07T06:00:35;11.40;99.90
15546;DHT22;7874;48.870;11.074;2023-08-07T06:03:02;11.40;99.90
15546;DHT22;7874;48.870;11.074;2023-08-07T06:05:29;11.50;99.90
15546;DHT22;7874;48.870;11.074;2023-08-07T06:07:56;11.40;99.90
15546;DHT22;7874;48.870;11.074;2023-08-07T06:10:23;11.40;99.90
15546;DHT22;7874;48.870;11.074;2023-08-07T06:12:49;11.50;99.90
15546;DHT22;7874;48.870;11.074;2023-08-07T06:15:18;11.40;99.90
15546;DHT22;7874;48.870;11.074;2023-08-07T06:17:44;11.40;99.90
15546;DHT22;7874;48.870;11.074;2023-08-07T06:20:11;11.50;99.90
15546;DHT22;7874;48.870;11.074;2023-08-07T06:22:39;11.50;99.90
15546;DHT22;7874;48.870;11.074;2023-08-07T06:25:07;11.40;99.90
15546;DHT22;7874;48.870;11.074;2023-08-07T06:27:33;11.50;99.90
15546;DHT22;7874;48.870;11.074;2023-08-07T06:30:00;11.60;99.90
15546;DHT22;7874;48.870;11.074;2023-08-07T06:32:28;11.60;99.90
15546;DHT22;7874;48.870;11.074;2023-08-07T06:34:55;11.60;99.90
15546;DHT22;7874;48.870;11.074;2023-08-07T06:37:21;11.60;99.90
15546;DHT22;7874;48.870;11.074;2023-08-07T06:39:48;11.70;99.90
15546;DHT22;7874;48.870;11.074;2023-08-07T06:42:15;11.70;99.90
15546;DHT22;7874;48.870;11.074;2023-08-07T06:46:56;11.70;99.90
15546;DHT22;7874;48.870;11.074;2023-08-07T06:49:23;11.70;99.90
15546;DHT22;7874;48.870;11.074;2023-08-07T06:51:49;11.80;99.90
15546;DHT22;7874;48.870;11.074;2023-08-07T06:54:16;11.90;99.90
15546;DHT22;7874;48.870;11.074;2023-08-07T06:56:43;11.90;99.90
15546;DHT22;7874;48.870;11.074;2023-08-07T06:59:10;11.90;99.90
15546;DHT22;7874;48.870;11.074;2023-08-07T07:01:36;12.00;99.90
15546;DHT22;7874;48.870;11.074;2023-08-07T07:04:04;12.00;99.90
15546;DHT22;7874;48.870;11.074;2023-08-07T07:06:31;12.00;99.90
15546;DHT22;7874;48.870;11.074;2023-08-07T07:08:58;12.00;99.90
15546;DHT22;7874;48.870;11.074;2023-08-07T07:11:25;12.10;99.90
15546;DHT22;7874;48.870;11.074;2023-08-07T07:13:52;12.10;99.90
15546;DHT22;7874;48.870;11.074;2023-08-07T07:16:19;12.10;99.90
15546;DHT22;7874;48.870;11.074;2023-08-07T07:18:46;12.20;99.90
15546;DHT22;7874;48.870;11.074;2023-08-07T07:21:15;12.20;99.90
15546;DHT22;7874;48.870;11.074;2023-08-07T07:23:41;12.30;99.90
15546;DHT22;7874;48.870;11.074;2023-08-07T07:26:08;12.20;99.90
15546;DHT22;7874;48.870;11.074;2023-08-07T07:28:35;12.30;99.90
15546;DHT22;7874;48.870;11.074;2023-08-07T07:31:02;12.40;99.90
15546;DHT22;7874;48.870;11.074;2023-08-07T07:33:29;12.40;99.90
15546;DHT22;7874;48.870;11.074;2023-08-07T07:35:56;12.40;99.90
15546;DHT22;7874;48.870;11.074;2023-08-07T07:38:24;12.40;99.90
15546;DHT22;7874;48.870;11.074;2023-08-07T07:40:51;12.40;99.90
15546;DHT22;7874;48.870;11.074;2023-08-07T07:43:22;12.60;99.90
15546;DHT22;7874;48.870;11.074;2023-08-07T07:45:48;12.80;99.90
15546;DHT22;7874;48.870;11.074;2023-08-07T07:48:15;13.00;99.90
15546;DHT22;7874;48.870;11.074;2023-08-07T07:50:42;13.00;99.90
15546;DHT22;7874;48.870;11.074;2023-08-07T07:53:08;13.10;99.90
15546;DHT22;7874;48.870;11.074;2023-08-07T07:55:36;13.00;99.90
15546;DHT22;7874;48.870;11.074;2023-08-07T07:58:03;13.10;99.90
15546;DHT22;7874;48.870;11.074;2023-08-07T08:00:30;13.10;99.90
15546;DHT22;7874;48.870;11.074;2023-08-07T08:02:56;13.30;99.90
15546;DHT22;7874;48.870;11.074;2023-08-07T08:05:24;13.30;99.90
15546;DHT22;7874;48.870;11.074;2023-08-07T08:07:51;13.20;99.90
15546;DHT22;7874;48.870;11.074;2023-08-07T08:10:18;13.20;99.90
15546;DHT22;7874;48.870;11.074;2023-08-07T08:12:46;13.40;99.90
15546;DHT22;7874;48.870;11.074;2023-08-07T08:15:13;13.40;99.90
15546;DHT22;7874;48.870;11.074;2023-08-07T08:17:39;13.30;99.90
15546;DHT22;7874;48.870;11.074;2023-08-07T08:20:07;13.40;99.90
15546;DHT22;7874;48.870;11.074;2023-08-07T08:22:34;13.50;99.90
15546;DHT22;7874;48.870;11.074;2023-08-07T08:25:01;13.60;99.90
15546;DHT22;7874;48.870;11.074;2023-08-07T08:27:29;13.70;99.90
15546;DHT22;7874;48.870;11.074;2023-08-07T08:29:57;13.50;99.90
15546;DHT22;7874;48.870;11.074;2023-08-07T08:32:24;13.40;99.90
15546;DHT22;7874;48.870;11.074;2023-08-07T08:34:51;13.40;99.90
15546;DHT22;7874;48.870;11.074;2023-08-07T08:37:18;13.30;99.90
15546;DHT22;7874;48.870;11.074;2023-08-07T08:39:44;13.30;99.90
15546;DHT22;7874;48.870;11.074;2023-08-07T08:42:11;13.30;99.90
15546;DHT22;7874;48.870;11.074;2023-08-07T08:44:39;13.40;99.90
15546;DHT22;7874;48.870;11.074;2023-08-07T08:47:08;13.50;99.90
15546;DHT22;7874;48.870;11.074;2023-08-07T08:49:41;13.50;99.90
15546;DHT22;7874;48.870;11.074;2023-08-07T08:52:10;13.50;99.90
15546;DHT22;7874;48.870;11.074;2023-08-07T08:54:37;13.50;99.90
15546;DHT22;7874;48.870;11.074;2023-08-07T08:57:05;13.50;99.90
15546;DHT22;7874;48.870;11.074;2023-08-07T08:59:33;13.60;99.90
15546;DHT22;7874;48.870;11.074;2023-08-07T09:02:00;13.60;99.90
15546;DHT22;7874;48.870;11.074;2023-08-07T09:04:28;13.70;99.90
15546;DHT22;7874;48.870;11.074;2023-08-07T09:06:55;13.80;99.90
15546;DHT22;7874;48.870;11.074;2023-08-07T09:09:22;14.00;99.90
15546;DHT22;7874;48.870;11.074;2023-08-07T09:11:50;14.00;99.90
15546;DHT22;7874;48.870;11.074;2023-08-07T09:14:20;14.10;99.90
15546;DHT22;7874;48.870;11.074;2023-08-07T09:16:48;14.30;99.90
15546;DHT22;7874;48.870;11.074;2023-08-07T09:19:16;14.40;99.90
15546;DHT22;7874;48.870;11.074;2023-08-07T09:21:44;14.50;99.90
15546;DHT22;7874;48.870;11.074;2023-08-07T09:24:11;14.60;99.90
15546;DHT22;7874;48.870;11.074;2023-08-07T09:26:39;14.80;99.90
15546;DHT22;7874;48.870;11.074;2023-08-07T09:29:09;14.90;99.90
15546;DHT22;7874;48.870;11.074;2023-08-07T09:31:36;15.00;99.90
15546;DHT22;7874;48.870;11.074;2023-08-07T09:35:45;15.00;99.90
15546;DHT22;7874;48.870;11.074;2023-08-07T09:38:12;15.00;99.90
15546;DHT22;7874;48.870;11.074;2023-08-07T09:40:38;15.10;99.90
15546;DHT22;7874;48.870;11.074;2023-08-07T09:43:05;15.30;99.90
15546;DHT22;7874;48.870;11.074;2023-08-07T09:45:32;15.30;99.90
15546;DHT22;7874;48.870;11.074;2023-08-07T09:48:03;15.40;99.90
15546;DHT22;7874;48.870;11.074;2023-08-07T09:50:31;15.20;99.90
15546;DHT22;7874;48.870;11.074;2023-08-07T09:53:00;15.00;99.90
15546;DHT22;7874;48.870;11.074;2023-08-07T09:55:27;14.90;99.90
15546;DHT22;7874;48.870;11.074;2023-08-07T09:57:54;15.10;99.90
15546;DHT22;7874;48.870;11.074;2023-08-07T10:00:21;15.20;99.90
15546;DHT22;7874;48.870;11.074;2023-08-07T10:02:49;15.40;99.90
15546;DHT22;7874;48.870;11.074;2023-08-07T10:05:16;15.60;99.90
15546;DHT22;7874;48.870;11.074;2023-08-07T10:07:43;15.90;99.90
15546;DHT22;7874;48.870;11.074;2023-08-07T10:10:11;16.20;99.90
15546;DHT22;7874;48.870;11.074;2023-08-07T10:12:38;16.40;99.90
15546;DHT22;7874;48.870;11.074;2023-08-07T10:15:06;16.50;99.90
15546;DHT22;7874;48.870;11.074;2023-08-07T10:17:33;16.50;99.90
15546;DHT22;7874;48.870;11.074;2023-08-07T10:20:00;16.30;99.90
15546;DHT22;7874;48.870;11.074;2023-08-07T10:22:29;16.20;99.90
15546;DHT22;7874;48.870;11.074;2023-08-07T10:24:57;16.10;99.90
15546;DHT22;7874;48.870;11.074;2023-08-07T10:27:27;16.20;99.90
15546;DHT22;7874;48.870;11.074;2023-08-07T10:29:56;16.50;99.90
15546;DHT22;7874;48.870;11.074;2023-08-07T10:32:25;16.50;99.90
15546;DHT22;7874;48.870;11.074;2023-08-07T10:34:52;16.70;99.90
15546;DHT22;7874;48.870;11.074;2023-08-07T10:37:32;16.40;99.90
15546;DHT22;7874;48.870;11.074;2023-08-07T10:40:05;16.50;99.90
15546;DHT22;7874;48.870;11.074;2023-08-07T10:42:52;16.50;99.90
15546;DHT22;7874;48.870;11.074;2023-08-07T10:45:18;16.50;99.90
15546;DHT22;7874;48.870;11.074;2023-08-07T10:47:57;16.40;99.90
15546;DHT22;7874;48.870;11.074;2023-08-07T10:50:28;16.50;99.90
15546;DHT22;7874;48.870;11.074;2023-08-07T10:52:55;16.40;99.90
15546;DHT22;7874;48.870;11.074;2023-08-07T10:55:22;16.40;99.90
15546;DHT22;7874;48.870;11.074;2023-08-07T10:57:50;16.00;99.90
15546;DHT22;7874;48.870;11.074;2023-08-07T11:00:25;15.70;99.90
15546;DHT22;7874;48.870;11.074;2023-08-07T11:02:52;15.60;99.90
15546;DHT22;7874;48.870;11.074;2023-08-07T11:05:19;15.50;99.90
15546;DHT22;7874;48.870;11.074;2023-08-07T11:07:46;15.60;99.90
15546;DHT22;7874;48.870;11.074;2023-08-07T11:10:14;16.00;99.90
15546;DHT22;7874;48.870;11.074;2023-08-07T11:12:41;16.50;99.90
15546;DHT22;7874;48.870;11.074;2023-08-07T11:15:12;17.20;99.90
15546;DHT22;7874;48.870;11.074;2023-08-07T11:17:40;17.80;99.90
15546;DHT22;7874;48.870;11.074;2023-08-07T11:20:09;18.80;99.90
15546;DHT22;7874;48.870;11.074;2023-08-07T11:22:38;19.00;99.90
15546;DHT22;7874;48.870;11.074;2023-08-07T11:25:06;18.80;99.90
15546;DHT22;7874;48.870;11.074;2023-08-07T11:27:37;18.50;99.90
15546;DHT22;7874;48.870;11.074;2023-08-07T11:30:05;18.50;99.90
15546;DHT22;7874;48.870;11.074;2023-08-07T11:32:31;18.70;99.90
15546;DHT22;7874;48.870;11.074;2023-08-07T11:35:00;18.90;99.90
15546;DHT22;7874;48.870;11.074;2023-08-07T11:37:28;18.90;99.90
15546;DHT22;7874;48.870;11.074;2023-08-07T11:40:00;19.20;99.90
15546;DHT22;7874;48.870;11.074;2023-08-07T11:42:28;19.90;99.90
15546;DHT22;7874;48.870;11.074;2023-08-07T11:44:54;20.30;99.90
15546;DHT22;7874;48.870;11.074;2023-08-07T11:47:21;20.70;99.90
15546;DHT22;7874;48.870;11.074;2023-08-07T11:49:48;21.10;99.90
15546;DHT22;7874;48.870;11.074;2023-08-07T11:52:16;20.40;99.90
15546;DHT22;7874;48.870;11.074;2023-08-07T11:54:46;20.40;99.90
15546;DHT22;7874;48.870;11.074;2023-08-07T11:57:17;20.90;99.90
15546;DHT22;7874;48.870;11.074;2023-08-07T11:59:48;21.90;99.90
15546;DHT22;7874;48.870;11.074;2023-08-07T12:02:15;21.90;99.90
15546;DHT22;7874;48.870;11.074;2023-08-07T12:04:42;21.20;99.90
15546;DHT22;7874;48.870;11.074;2023-08-07T12:07:09;19.80;99.90
15546;DHT22;7874;48.870;11.074;2023-08-07T12:09:37;19.30;99.90
15546;DHT22;7874;48.870;11.074;2023-08-07T12:12:06;18.80;99.90
15546;DHT22;7874;48.870;11.074;2023-08-07T12:14:33;18.10;99.90
15546;DHT22;7874;48.870;11.074;2023-08-07T12:17:02;18.20;99.90
15546;DHT22;7874;48.870;11.074;2023-08-07T12:19:39;18.80;99.90
15546;DHT22;7874;48.870;11.074;2023-08-07T12:24:35;18.80;99.90
15546;DHT22;7874;48.870;11.074;2023-08-07T12:27:02;19.00;99.90
15546;DHT22;7874;48.870;11.074;2023-08-07T12:29:29;18.80;99.90
15546;DHT22;7874;48.870;11.074;2023-08-07T12:31:55;18.10;99.90
15546;DHT22;7874;48.870;11.074;2023-08-07T12:34:24;17.70;99.90
15546;DHT22;7874;48.870;11.074;2023-08-07T12:36:51;17.40;99.90
15546;DHT22;7874;48.870;11.074;2023-08-07T12:39:18;17.60;99.90
15546;DHT22;7874;48.870;11.074;2023-08-07T12:41:46;17.80;99.90
15546;DHT22;7874;48.870;11.074;2023-08-07T12:44:13;17.90;99.90
15546;DHT22;7874;48.870;11.074;2023-08-07T12:46:40;18.30;99.90
15546;DHT22;7874;48.870;11.074;2023-08-07T12:49:08;18.70;99.90
15546;DHT22;7874;48.870;11.074;2023-08-07T12:51:35;18.40;99.90
15546;DHT22;7874;48.870;11.074;2023-08-07T12:54:02;18.10;99.90
15546;DHT22;7874;48.870;11.074;2023-08-07T12:56:28;18.00;99.90
15546;DHT22;7874;48.870;11.074;2023-08-07T12:58:56;18.00;99.90
15546;DHT22;7874;48.870;11.074;2023-08-07T13:01:23;17.80;99.90
15546;DHT22;7874;48.870;11.074;2023-08-07T13:03:51;17.80;99.90
15546;DHT22;7874;48.870;11.074;2023-08-07T13:06:17;17.80;99.90
15546;DHT22;7874;48.870;11.074;2023-08-07T13:08:44;17.80;99.90
15546;DHT22;7874;48.870;11.074;2023-08-07T13:11:12;17.70;99.90
15546;DHT22;7874;48.870;11.074;2023-08-07T13:13:39;17.30;99.90
15546;DHT22;7874;48.870;11.074;2023-08-07T13:16:07;17.60;99.90
15546;DHT22;7874;48.870;11.074;2023-08-07T13:18:33;17.50;99.90
15546;DHT22;7874;48.870;11.074;2023-08-07T13:21:00;17.50;99.90
15546;DHT22;7874;48.870;11.074;2023-08-07T13:23:27;17.60;99.90
15546;DHT22;7874;48.870;11.074;2023-08-07T13:25:54;17.80;99.90
15546;DHT22;7874;48.870;11.074;2023-08-07T13:28:21;17.90;99.90
15546;DHT22;7874;48.870;11.074;2023-08-07T13:30:48;17.50;99.90
15546;DHT22;7874;48.870;11.074;2023-08-07T13:33:17;17.30;99.90
15546;DHT22;7874;48.870;11.074;2023-08-07T13:35:45;16.80;99.90
15546;DHT22;7874;48.870;11.074;2023-08-07T13:38:12;16.80;99.90
15546;DHT22;7874;48.870;11.074;2023-08-07T13:40:40;16.80;99.90
15546;DHT22;7874;48.870;11.074;2023-08-07T13:43:09;16.80;99.90
15546;DHT22;7874;48.870;11.074;2023-08-07T13:45:36;16.80;99.90
15546;DHT22;7874;48.870;11.074;2023-08-07T13:48:03;16.80;99.90
15546;DHT22;7874;48.870;11.074;2023-08-07T13:50:33;17.10;99.90
15546;DHT22;7874;48.870;11.074;2023-08-07T13:52:59;17.40;99.90
15546;DHT22;7874;48.870;11.074;2023-08-07T13:55:26;17.40;99.90
15546;DHT22;7874;48.870;11.074;2023-08-07T13:57:54;17.30;99.90
15546;DHT22;7874;48.870;11.074;2023-08-07T14:00:21;17.30;99.90
15546;DHT22;7874;48.870;11.074;2023-08-07T14:02:47;17.30;99.90
15546;DHT22;7874;48.870;11.074;2023-08-07T14:05:14;16.90;99.90
15546;DHT22;7874;48.870;11.074;2023-08-07T14:07:42;16.50;99.90
15546;DHT22;7874;48.870;11.074;2023-08-07T14:10:09;16.20;99.90
15546;DHT22;7874;48.870;11.074;2023-08-07T14:12:36;16.00;99.90
15546;DHT22;7874;48.870;11.074;2023-08-07T14:15:03;15.80;99.90
15546;DHT22;7874;48.870;11.074;2023-08-07T14:17:30;15.60;99.90
15546;DHT22;7874;48.870;11.074;2023-08-07T14:19:56;15.60;99.90
15546;DHT22;7874;48.870;11.074;2023-08-07T14:22:23;15.70;99.90
15546;DHT22;7874;48.870;11.074;2023-08-07T14:24:51;15.70;99.90
15546;DHT22;7874;48.870;11.074;2023-08-07T14:27:18;15.80;99.90
15546;DHT22;7874;48.870;11.074;2023-08-07T14:29:45;15.80;99.90
15546;DHT22;7874;48.870;11.074;2023-08-07T14:32:11;15.80;99.90
15546;DHT22;7874;48.870;11.074;2023-08-07T14:34:38;15.90;99.90
15546;DHT22;7874;48.870;11.074;2023-08-07T14:37:05;16.00;99.90
15546;DHT22;7874;48.870;11.074;2023-08-07T14:39:32;15.90;99.90
15546;DHT22;7874;48.870;11.074;2023-08-07T14:42:00;16.00;99.90
15546;DHT22;7874;48.870;11.074;2023-08-07T14:44:26;15.80;99.90
15546;DHT22;7874;48.870;11.074;2023-08-07T14:46:54;15.80;99.90
15546;DHT22;7874;48.870;11.074;2023-08-07T14:49:21;15.80;99.90
15546;DHT22;7874;48.870;11.074;2023-08-07T14:51:48;15.70;99.90
15546;DHT22;7874;48.870;11.074;2023-08-07T14:54:15;15.50;99.90
15546;DHT22;7874;48.870;11.074;2023-08-07T14:56:41;15.60;99.90
15546;DHT22;7874;48.870;11.074;2023-08-07T14:59:09;15.70;99.90
15546;DHT22;7874;48.870;11.074;2023-08-07T15:01:36;15.60;99.90
15546;DHT22;7874;48.870;11.074;2023-08-07T15:04:03;15.70;99.90
15546;DHT22;7874;48.870;11.074;2023-08-07T15:06:30;15.70;99.90
15546;DHT22;7874;48.870;11.074;2023-08-07T15:08:56;15.60;99.90
15546;DHT22;7874;48.870;11.074;2023-08-07T15:13:22;15.60;99.90
15546;DHT22;7874;48.870;11.074;2023-08-07T15:15:49;15.90;99.90
15546;DHT22;7874;48.870;11.074;2023-08-07T15:18:15;16.00;99.90
15546;DHT22;7874;48.870;11.074;2023-08-07T15:20:42;16.00;99.90
15546;DHT22;7874;48.870;11.074;2023-08-07T15:23:09;16.00;99.90
15546;DHT22;7874;48.870;11.074;2023-08-07T15:25:37;16.10;99.90
15546;DHT22;7874;48.870;11.074;2023-08-07T15:28:05;16.10;99.90
15546;DHT22;7874;48.870;11.074;2023-08-07T15:30:33;15.90;99.90
15546;DHT22;7874;48.870;11.074;2023-08-07T15:33:00;15.80;99.90
15546;DHT22;7874;48.870;11.074;2023-08-07T15:35:29;15.90;99.90
15546;DHT22;7874;48.870;11.074;2023-08-07T15:37:56;15.90;99.90
15546;DHT22;7874;48.870;11.074;2023-08-07T15:40:23;16.00;99.90
15546;DHT22;7874;48.870;11.074;2023-08-07T15:42:49;16.00;99.90